createdAt,value
2022-08-09T00:00:11.911Z,3.37
2022-08-09T00:02:48.965Z,3.23
2022-08-09T00:06:18.384Z,3.43
2022-08-09T00:08:09.865Z,3.57
2022-08-09T00:10:40.039Z,4.20
2022-08-09T00:13:16.853Z,3.37
2022-08-09T00:15:59.340Z,3.10
2022-08-09T00:18:31.415Z,3.70
2022-08-09T00:21:04.398Z,2.90
2022-08-09T00:23:54.706Z,3.37
2022-08-09T00:26:29.988Z,3.30
2022-08-09T00:29:01.278Z,3.77
2022-08-09T00:31:50.542Z,4.10
2022-08-09T00:34:19.527Z,3.23
2022-08-09T00:36:48.779Z,3.70
2022-08-09T00:40:13.770Z,3.67
2022-08-09T00:44:14.660Z,3.17
2022-08-09T00:44:54.597Z,3.83
2022-08-09T00:47:24.668Z,3.30
2022-08-09T00:49:54.822Z,3.70
2022-08-09T00:52:30.098Z,4.07
2022-08-09T00:55:00.298Z,3.60
2022-08-09T00:57:34.748Z,3.47
2022-08-09T01:00:22.129Z,3.27
2022-08-09T01:02:53.512Z,4.07
2022-08-09T01:05:53.481Z,3.70
2022-08-09T01:08:27.069Z,3.30
2022-08-09T01:11:08.830Z,3.87
2022-08-09T01:13:58.664Z,3.83
2022-08-09T01:16:33.184Z,3.63
2022-08-09T01:19:40.042Z,3.27
2022-08-09T01:22:59.592Z,3.73
2022-08-09T01:25:48.937Z,3.30
2022-08-09T01:28:22.409Z,3.80
2022-08-09T01:30:58.262Z,3.70
2022-08-09T01:33:30.283Z,3.80
2022-08-09T01:36:04.149Z,3.33
2022-08-09T01:38:38.398Z,3.47
2022-08-09T01:41:14.307Z,5.33
2022-08-09T01:43:51.950Z,3.93
2022-08-09T01:46:24.967Z,4.40
2022-08-09T01:48:56.908Z,3.50
2022-08-09T01:51:26.391Z,4.17
2022-08-09T01:53:58.001Z,3.60
2022-08-09T01:56:28.087Z,3.40
2022-08-09T01:58:58.665Z,3.67
2022-08-09T02:01:58.333Z,3.50
2022-08-09T02:04:19.183Z,4.00
2022-08-09T02:07:05.664Z,4.00
2022-08-09T02:09:41.818Z,3.80
2022-08-09T02:12:21.265Z,3.73
2022-08-09T02:15:06.493Z,3.93
2022-08-09T02:18:00.907Z,3.90
2022-08-09T02:20:32.528Z,4.00
2022-08-09T02:23:07.109Z,3.23
2022-08-09T02:25:42.190Z,3.50
2022-08-09T02:28:21.124Z,3.73
2022-08-09T02:30:59.504Z,3.37
2022-08-09T02:33:37.987Z,3.80
2022-08-09T02:36:26.272Z,3.77
2022-08-09T02:38:56.568Z,4.10
2022-08-09T02:41:28.505Z,3.63
2022-08-09T02:44:10.306Z,4.10
2022-08-09T02:46:44.606Z,3.33
2022-08-09T02:49:15.661Z,4.13
2022-08-09T02:51:48.794Z,4.10
2022-08-09T02:54:19.177Z,3.73
2022-08-09T02:56:53.973Z,3.70
2022-08-09T02:59:36.382Z,3.60
2022-08-09T03:02:11.951Z,3.80
2022-08-09T03:04:41.682Z,3.43
2022-08-09T03:07:12.515Z,4.00
2022-08-09T03:09:54.334Z,3.83
2022-08-09T03:12:25.436Z,3.73
2022-08-09T03:14:54.747Z,4.07
2022-08-09T03:17:26.674Z,4.30
2022-08-09T03:20:03.167Z,4.53
2022-08-09T03:22:42.039Z,3.93
2022-08-09T03:25:25.737Z,4.10
2022-08-09T03:28:03.672Z,3.53
2022-08-09T03:30:34.009Z,3.77
2022-08-09T03:33:17.187Z,5.67
2022-08-09T03:36:13.536Z,4.00
2022-08-09T03:38:37.424Z,3.97
2022-08-09T03:41:15.358Z,4.60
2022-08-09T03:44:03.135Z,4.43
2022-08-09T03:46:32.886Z,4.33
2022-08-09T03:49:09.015Z,3.73
2022-08-09T03:51:57.793Z,4.70
2022-08-09T03:54:31.307Z,4.50
2022-08-09T03:57:02.199Z,3.73
2022-08-09T03:59:42.985Z,4.27
2022-08-09T04:02:27.015Z,4.30
2022-08-09T04:04:58.621Z,3.60
2022-08-09T04:07:47.478Z,4.40
2022-08-09T04:10:20.556Z,3.83
2022-08-09T04:12:51.486Z,4.17
2022-08-09T04:15:38.892Z,4.33
2022-08-09T04:18:16.407Z,4.50
2022-08-09T04:20:47.509Z,4.50
2022-08-09T04:23:17.296Z,3.93
2022-08-09T04:25:52.312Z,4.07
2022-08-09T04:28:31.869Z,4.17
2022-08-09T04:31:05.673Z,4.30
2022-08-09T04:33:47.741Z,4.47
2022-08-09T04:36:24.278Z,4.20
2022-08-09T04:38:52.408Z,3.83
2022-08-09T04:41:23.662Z,3.73
2022-08-09T04:44:05.066Z,4.00
2022-08-09T04:46:56.758Z,4.37
2022-08-09T04:49:40.296Z,3.90
2022-08-09T04:52:11.965Z,4.40
2022-08-09T04:54:48.104Z,4.70
2022-08-09T04:57:16.070Z,4.83
2022-08-09T04:59:52.628Z,4.10
2022-08-09T05:02:20.670Z,4.50
2022-08-09T05:04:48.551Z,4.30
2022-08-09T05:07:25.136Z,4.33
2022-08-09T05:09:57.671Z,5.00
2022-08-09T05:12:26.956Z,4.27
2022-08-09T05:14:54.811Z,4.50
2022-08-09T05:18:50.735Z,4.80
2022-08-09T05:20:11.961Z,4.43
2022-08-09T05:23:50.558Z,4.23
2022-08-09T05:25:32.344Z,4.40
2022-08-09T05:28:00.913Z,4.33
2022-08-09T05:30:30.131Z,4.20
2022-08-09T05:33:00.603Z,4.93
2022-08-09T05:35:29.899Z,5.20
2022-08-09T05:38:01.272Z,5.20
2022-08-09T05:40:29.605Z,5.67
2022-08-09T05:42:57.592Z,5.30
2022-08-09T05:45:26.167Z,5.10
2022-08-09T05:48:14.061Z,5.40
2022-08-09T05:50:51.231Z,5.57
2022-08-09T05:53:35.338Z,5.80
2022-08-09T05:56:10.527Z,5.97
2022-08-09T05:58:44.174Z,5.70
2022-08-09T06:01:15.805Z,5.63
2022-08-09T06:03:54.679Z,5.90
2022-08-09T06:06:26.613Z,5.83
2022-08-09T06:08:55.992Z,5.07
2022-08-09T06:11:40.541Z,5.57
2022-08-09T06:14:09.404Z,5.00
2022-08-09T06:16:38.036Z,5.20
2022-08-09T06:19:09.394Z,4.93
2022-08-09T06:21:37.307Z,5.27
2022-08-09T06:24:19.653Z,5.17
2022-08-09T06:26:47.537Z,5.17
2022-08-09T06:29:16.780Z,4.50
2022-08-09T06:32:17.262Z,5.10
2022-08-09T06:34:32.545Z,4.53
2022-08-09T06:37:01.397Z,4.80
2022-08-09T06:39:48.759Z,4.03
2022-08-09T06:42:24.694Z,4.77
2022-08-09T06:44:59.170Z,3.80
2022-08-09T06:47:39.628Z,3.50
2022-08-09T06:50:13.720Z,3.23
2022-08-09T06:52:48.496Z,3.17
2022-08-09T06:55:23.157Z,3.10
2022-08-09T06:58:02.532Z,3.50
2022-08-09T07:00:48.641Z,3.37
2022-08-09T07:03:19.856Z,2.97
2022-08-09T07:06:02.286Z,2.90
2022-08-09T07:08:31.211Z,3.13
2022-08-09T07:11:03.531Z,2.67
2022-08-09T07:13:31.723Z,2.90
2022-08-09T07:16:41.708Z,3.10
2022-08-09T07:19:07.712Z,2.70
2022-08-09T07:21:36.640Z,2.33
2022-08-09T07:24:05.143Z,2.20
2022-08-09T07:26:34.652Z,2.27
2022-08-09T07:29:12.186Z,1.90
2022-08-09T07:31:46.049Z,2.40
2022-08-09T07:34:20.487Z,2.10
2022-08-09T07:36:49.012Z,2.30
2022-08-09T07:39:20.525Z,1.90
2022-08-09T07:42:06.868Z,2.08
2022-08-09T07:44:52.017Z,2.00
2022-08-09T07:47:23.135Z,2.38
2022-08-09T07:50:04.473Z,1.90
2022-08-09T07:52:36.607Z,1.77
2022-08-09T07:55:09.554Z,2.00
2022-08-09T07:57:47.383Z,2.03
2022-08-09T08:00:20.853Z,1.80
2022-08-09T08:03:04.354Z,2.00
2022-08-09T08:05:53.461Z,2.17
2022-08-09T08:09:02.523Z,1.73
2022-08-09T08:12:09.230Z,1.98
2022-08-09T08:13:57.883Z,1.98
2022-08-09T08:16:31.769Z,1.80
2022-08-09T08:19:03.059Z,1.88
2022-08-09T08:21:32.667Z,1.75
2022-08-09T08:24:01.401Z,1.70
2022-08-09T08:26:42.046Z,1.80
2022-08-09T08:29:28.147Z,2.30
2022-08-09T08:32:03.219Z,3.20
2022-08-09T08:34:34.732Z,1.65
2022-08-09T08:37:05.054Z,1.67
2022-08-09T08:39:39.185Z,1.70
2022-08-09T08:42:12.490Z,1.73
2022-08-09T08:44:43.593Z,1.77
2022-08-09T08:47:14.344Z,1.92
2022-08-09T08:49:46.649Z,1.83
2022-08-09T08:52:52.584Z,2.40
2022-08-09T08:55:06.695Z,2.22
2022-08-09T08:57:36.078Z,2.03
2022-08-09T09:00:20.461Z,1.80
2022-08-09T09:02:52.617Z,2.45
2022-08-09T09:05:33.117Z,2.00
2022-08-09T09:08:29.988Z,2.10
2022-08-09T09:11:03.473Z,2.13
2022-08-09T09:13:34.782Z,2.33
2022-08-09T09:16:16.680Z,1.90
2022-08-09T09:18:51.882Z,1.65
2022-08-09T09:21:27.534Z,1.90
2022-08-09T09:23:58.512Z,2.20
2022-08-09T09:26:34.861Z,1.80
2022-08-09T09:29:11.319Z,1.75
2022-08-09T09:32:04.622Z,2.13
2022-08-09T09:34:39.642Z,2.10
2022-08-09T09:37:31.826Z,1.80
2022-08-09T09:40:02.638Z,1.80
2022-08-09T09:42:32.172Z,1.80
2022-08-09T09:45:03.190Z,1.80
2022-08-09T09:47:36.881Z,1.60
2022-08-09T09:50:23.148Z,1.70
2022-08-09T09:52:53.816Z,2.03
2022-08-09T09:55:27.880Z,1.90
2022-08-09T09:58:18.840Z,1.75
2022-08-09T10:00:53.896Z,1.83
2022-08-09T10:03:57.083Z,1.63
2022-08-09T10:06:28.620Z,1.70
2022-08-09T10:09:21.774Z,1.90
2022-08-09T10:12:04.475Z,2.10
2022-08-09T10:14:47.654Z,1.98
2022-08-09T10:17:54.942Z,2.38
2022-08-09T10:20:27.512Z,1.77
2022-08-09T10:23:14.063Z,1.60
2022-08-09T10:26:07.257Z,1.90
2022-08-09T10:28:35.414Z,1.70
2022-08-09T10:34:10.545Z,1.93
2022-08-09T10:36:43.237Z,2.40
2022-08-09T10:39:16.041Z,2.77
2022-08-09T10:41:48.308Z,3.50
2022-08-09T10:44:19.643Z,2.90
2022-08-09T10:48:17.314Z,2.30
2022-08-09T10:50:20.974Z,2.60
2022-08-09T10:53:10.382Z,2.67
2022-08-09T10:55:58.402Z,2.43
2022-08-09T10:58:33.598Z,2.57
2022-08-09T11:03:06.578Z,2.57
2022-08-09T11:04:29.641Z,2.83
2022-08-09T11:07:57.647Z,2.50
2022-08-09T11:11:01.013Z,3.37
2022-08-09T11:13:53.826Z,3.20
2022-08-09T11:16:37.362Z,2.87
2022-08-09T11:19:09.470Z,2.90
2022-08-09T11:21:57.374Z,2.70
2022-08-09T11:25:05.366Z,2.97
2022-08-09T11:28:05.486Z,2.60
2022-08-09T11:30:35.650Z,3.17
2022-08-09T11:33:07.150Z,2.57
2022-08-09T11:35:49.589Z,2.77
2022-08-09T11:38:21.974Z,2.40
2022-08-09T11:40:54.689Z,2.70
2022-08-09T11:43:43.389Z,2.17
2022-08-09T11:46:11.605Z,2.70
2022-08-09T11:48:51.374Z,2.43
2022-08-09T11:52:56.432Z,2.90
2022-08-09T11:54:29.032Z,3.00
2022-08-09T11:58:00.318Z,3.10
2022-08-09T12:00:29.856Z,3.00
2022-08-09T12:03:00.534Z,2.57
2022-08-09T12:05:49.202Z,2.70
2022-08-09T12:08:22.111Z,2.80
2022-08-09T12:10:52.958Z,2.70
2022-08-09T12:14:07.362Z,3.73
2022-08-09T12:16:30.627Z,2.90
2022-08-09T12:19:08.514Z,2.83
2022-08-09T12:21:48.611Z,2.60
2022-08-09T12:24:23.956Z,2.30
2022-08-09T12:28:58.460Z,3.40
2022-08-09T12:30:00.181Z,2.70
2022-08-09T12:32:44.142Z,2.50
2022-08-09T12:35:19.017Z,3.03
2022-08-09T12:37:51.420Z,2.93
2022-08-09T12:40:24.469Z,2.60
2022-08-09T12:42:53.648Z,2.73
2022-08-09T12:45:35.044Z,3.00
2022-08-09T12:48:19.993Z,2.50
2022-08-09T12:50:59.350Z,2.60
2022-08-09T12:53:37.154Z,2.30
2022-08-09T12:56:43.941Z,2.47
2022-08-09T12:59:11.871Z,2.60
2022-08-09T13:01:46.954Z,2.70
2022-08-09T13:04:36.608Z,2.50
2022-08-09T13:07:14.299Z,2.23
2022-08-09T13:09:52.782Z,2.10
2022-08-09T13:12:24.096Z,2.60
2022-08-09T13:14:54.902Z,2.27
2022-08-09T13:18:03.451Z,2.37
2022-08-09T13:20:16.200Z,2.53
2022-08-09T13:23:05.503Z,2.37
2022-08-09T13:25:42.981Z,2.30
2022-08-09T13:28:34.486Z,2.57
2022-08-09T13:32:14.841Z,2.20
2022-08-09T13:33:56.458Z,2.17
2022-08-09T13:36:40.905Z,2.43
2022-08-09T13:39:30.738Z,2.10
2022-08-09T13:42:02.497Z,2.50
2022-08-09T13:44:31.562Z,2.40
2022-08-09T13:47:27.028Z,2.10
2022-08-09T13:49:57.550Z,5.20
2022-08-09T13:52:28.002Z,2.47
2022-08-09T13:54:59.849Z,3.33
2022-08-09T13:57:35.574Z,3.10
2022-08-09T14:00:09.068Z,2.47
2022-08-09T14:02:42.857Z,2.83
2022-08-09T14:05:59.363Z,2.17
2022-08-09T14:08:15.818Z,2.40
2022-08-09T14:10:51.864Z,2.90
2022-08-09T14:13:28.363Z,2.27
2022-08-09T14:16:11.261Z,3.00
2022-08-09T14:18:45.211Z,2.43
2022-08-09T14:21:17.603Z,2.00
2022-08-09T14:23:55.232Z,2.43
2022-08-09T14:26:31.463Z,2.93
2022-08-09T14:29:03.183Z,2.43
2022-08-09T14:31:35.828Z,2.83
2022-08-09T14:34:32.392Z,2.67
2022-08-09T14:37:02.009Z,2.43
2022-08-09T14:39:40.206Z,2.43
2022-08-09T14:42:28.710Z,2.40
2022-08-09T14:46:40.226Z,1.93
2022-08-09T14:47:57.860Z,2.43
2022-08-09T14:50:28.718Z,2.30
2022-08-09T14:52:56.745Z,1.90
2022-08-09T14:55:29.215Z,2.40
2022-08-09T14:58:02.883Z,2.33
2022-08-09T15:00:31.715Z,2.00
2022-08-09T15:03:00.183Z,2.07
2022-08-09T15:05:28.389Z,2.40
2022-08-09T15:07:58.302Z,2.17
2022-08-09T15:10:28.998Z,2.50
2022-08-09T15:13:01.407Z,2.30
2022-08-09T15:15:34.442Z,2.10
2022-08-09T15:18:07.608Z,2.40
2022-08-09T15:21:54.981Z,2.20
2022-08-09T15:24:09.197Z,2.30
2022-08-09T15:26:19.243Z,2.70
2022-08-09T15:29:04.276Z,2.10
2022-08-09T15:31:41.871Z,2.20
2022-08-09T15:34:32.703Z,2.20
2022-08-09T15:36:59.750Z,2.43
2022-08-09T15:39:34.661Z,2.20
2022-08-09T15:42:04.682Z,2.07
2022-08-09T15:44:34.514Z,2.17
2022-08-09T15:47:03.237Z,2.00
2022-08-09T15:49:33.148Z,2.13
2022-08-09T15:52:05.545Z,2.33
2022-08-09T15:54:46.090Z,2.00
2022-08-09T15:57:19.332Z,3.10
2022-08-09T16:00:06.815Z,1.70
2022-08-09T16:02:34.822Z,1.70
2022-08-09T16:05:04.131Z,1.70
2022-08-09T16:07:38.705Z,2.00
2022-08-09T16:10:17.059Z,1.93
2022-08-09T16:12:59.594Z,1.70
2022-08-09T16:16:10.540Z,2.23
2022-08-09T16:18:16.079Z,1.80
2022-08-09T16:20:43.965Z,1.63
2022-08-09T16:23:14.877Z,1.80
2022-08-09T16:25:49.703Z,1.90
2022-08-09T16:28:25.780Z,1.90
2022-08-09T16:30:54.148Z,1.80
2022-08-09T16:33:27.662Z,2.27
2022-08-09T16:36:02.070Z,2.00
2022-08-09T16:38:32.629Z,2.10
2022-08-09T16:41:04.206Z,1.73
2022-08-09T16:43:33.732Z,1.90
2022-08-09T16:46:08.617Z,1.70
2022-08-09T16:48:53.248Z,1.63
2022-08-09T16:51:23.949Z,1.77
2022-08-09T16:54:22.481Z,1.70
2022-08-09T16:56:49.252Z,1.70
2022-08-09T16:59:19.441Z,1.83
2022-08-09T17:01:51.368Z,2.20
2022-08-09T17:04:26.041Z,2.33
2022-08-09T17:08:40.971Z,2.10
2022-08-09T17:09:47.460Z,2.37
2022-08-09T17:12:16.228Z,1.63
2022-08-09T17:14:49.051Z,1.67
2022-08-09T17:17:26.422Z,2.00
2022-08-09T17:20:28.461Z,2.40
2022-08-09T17:22:52.228Z,2.00
2022-08-09T17:25:22.347Z,2.10
2022-08-09T17:27:54.444Z,2.20
2022-08-09T17:30:25.719Z,1.83
2022-08-09T17:32:55.201Z,2.10
2022-08-09T17:35:29.235Z,1.90
2022-08-09T17:38:11.342Z,1.60
2022-08-09T17:40:47.362Z,1.83
2022-08-09T17:43:34.426Z,2.07
2022-08-09T17:46:07.530Z,1.87
2022-08-09T17:48:40.040Z,2.10
2022-08-09T17:51:18.223Z,2.20
2022-08-09T17:53:53.329Z,2.37
2022-08-09T17:56:27.386Z,2.40
2022-08-09T17:58:56.932Z,1.87
2022-08-09T18:01:40.770Z,1.77
2022-08-09T18:04:14.347Z,2.37
2022-08-09T18:06:43.092Z,2.00
2022-08-09T18:09:22.667Z,1.93
2022-08-09T18:12:05.590Z,2.03
2022-08-09T18:14:50.127Z,2.00
2022-08-09T18:17:27.420Z,1.90
2022-08-09T18:20:55.624Z,2.20
2022-08-09T18:23:04.850Z,1.90
2022-08-09T18:25:50.975Z,2.47
2022-08-09T18:30:35.613Z,2.30
2022-08-09T18:31:09.617Z,2.07
2022-08-09T18:33:40.013Z,2.40
2022-08-09T18:36:14.412Z,2.30
2022-08-09T18:38:57.557Z,2.10
2022-08-09T18:41:29.482Z,2.03
2022-08-09T18:44:04.097Z,2.10
2022-08-09T18:46:46.176Z,2.27
2022-08-09T18:49:21.616Z,2.37
2022-08-09T18:51:55.106Z,1.73
2022-08-09T18:54:29.774Z,2.33
2022-08-09T18:57:06.434Z,2.33
2022-08-09T18:59:37.375Z,2.00
2022-08-09T19:02:18.002Z,1.90
2022-08-09T19:05:14.374Z,2.23
2022-08-09T19:07:36.101Z,2.10
2022-08-09T19:10:14.436Z,2.00
2022-08-09T19:12:50.326Z,2.03
2022-08-09T19:15:33.590Z,2.07
2022-08-09T19:18:02.042Z,2.10
2022-08-09T19:20:39.196Z,2.30
2022-08-09T19:23:07.965Z,2.10
2022-08-09T19:26:01.401Z,1.80
2022-08-09T19:28:28.838Z,2.50
2022-08-09T19:30:56.896Z,2.30
2022-08-09T19:33:25.042Z,2.40
2022-08-09T19:35:58.363Z,1.93
2022-08-09T19:38:27.243Z,2.30
2022-08-09T19:40:57.517Z,2.17
2022-08-09T19:44:01.917Z,2.10
2022-08-09T19:46:15.864Z,2.10
2022-08-09T19:49:00.100Z,2.40
2022-08-09T19:51:32.025Z,2.57
2022-08-09T19:54:05.736Z,2.57
2022-08-09T19:56:35.579Z,2.10
2022-08-09T19:59:39.600Z,2.53
2022-08-09T20:02:08.021Z,2.30
2022-08-09T20:04:52.825Z,2.97
2022-08-09T20:07:25.723Z,2.77
2022-08-09T20:10:17.643Z,3.40
2022-08-09T20:12:50.065Z,2.37
2022-08-09T20:16:37.405Z,2.77
2022-08-09T20:18:09.952Z,2.33
2022-08-09T20:20:38.064Z,2.80
2022-08-09T20:23:07.650Z,2.80
2022-08-09T20:25:49.621Z,2.77
2022-08-09T20:28:24.310Z,2.63
2022-08-09T20:31:00.197Z,2.50
2022-08-09T20:33:39.081Z,2.30
2022-08-09T20:36:12.247Z,2.20
2022-08-09T20:39:18.901Z,2.20
2022-08-09T20:41:35.123Z,3.27
2022-08-09T20:44:09.968Z,2.33
2022-08-09T20:46:42.782Z,2.70
2022-08-09T20:49:13.686Z,2.53
2022-08-09T20:51:42.443Z,2.70
2022-08-09T20:54:16.437Z,2.40
2022-08-09T20:56:46.804Z,2.60
2022-08-09T20:59:16.774Z,3.40
2022-08-09T21:01:51.063Z,2.40
2022-08-09T21:05:54.410Z,2.60
2022-08-09T21:07:14.225Z,2.83
2022-08-09T21:09:56.311Z,3.07
2022-08-09T21:15:15.683Z,2.57
2022-08-09T21:18:11.901Z,2.63
2022-08-09T21:20:32.757Z,2.20
2022-08-09T21:23:04.425Z,2.60
2022-08-09T21:25:56.298Z,2.53
2022-08-09T21:28:34.657Z,2.63
2022-08-09T21:31:13.649Z,2.33
2022-08-09T21:33:51.000Z,2.67
2022-08-09T21:36:23.014Z,2.60
2022-08-09T21:38:57.768Z,3.37
2022-08-09T21:42:03.931Z,3.30
2022-08-09T21:44:33.080Z,3.00
2022-08-09T21:47:04.290Z,2.70
2022-08-09T21:49:40.523Z,3.30
2022-08-09T21:52:14.942Z,2.70
2022-08-09T21:54:51.057Z,2.93
2022-08-09T21:57:37.012Z,2.60
2022-08-09T22:00:08.934Z,2.53
2022-08-09T22:02:38.052Z,2.50
2022-08-09T22:05:22.856Z,2.67
2022-08-09T22:07:53.349Z,3.07
2022-08-09T22:10:23.866Z,3.03
2022-08-09T22:12:53.617Z,3.33
2022-08-09T22:15:23.476Z,2.80
2022-08-09T22:18:01.469Z,3.10
2022-08-09T22:20:31.295Z,3.40
2022-08-09T22:22:59.365Z,3.00
2022-08-09T22:26:07.824Z,5.07
2022-08-09T22:28:29.463Z,3.10
2022-08-09T22:31:00.690Z,2.67
2022-08-09T22:33:37.516Z,2.53
2022-08-09T22:36:19.440Z,3.10
2022-08-09T22:38:47.882Z,3.03
2022-08-09T22:41:16.203Z,2.23
2022-08-09T22:44:01.597Z,3.60
2022-08-09T22:48:18.626Z,3.20
2022-08-09T22:49:20.120Z,3.50
2022-08-09T22:51:57.433Z,3.20
2022-08-09T22:54:27.290Z,3.40
2022-08-09T22:56:57.027Z,3.40
2022-08-09T22:59:57.101Z,3.03
2022-08-09T23:02:15.942Z,2.67
2022-08-09T23:04:54.179Z,4.07
2022-08-09T23:08:21.005Z,4.50
2022-08-09T23:10:29.461Z,3.20
2022-08-09T23:12:57.456Z,2.70
2022-08-09T23:15:27.369Z,3.20
2022-08-09T23:17:55.323Z,3.57
2022-08-09T23:20:25.618Z,3.70
2022-08-09T23:22:53.579Z,3.30
2022-08-09T23:25:21.534Z,3.53
2022-08-09T23:28:14.164Z,3.10
2022-08-09T23:30:38.735Z,2.83
2022-08-09T23:33:06.695Z,3.10
2022-08-09T23:36:06.279Z,3.30
2022-08-09T23:38:22.967Z,3.10
2022-08-09T23:40:51.777Z,3.13
2022-08-09T23:43:19.889Z,3.70
2022-08-09T23:45:49.265Z,2.93
2022-08-09T23:48:18.096Z,3.47
2022-08-09T23:50:46.140Z,3.30
2022-08-09T23:53:14.204Z,3.03
2022-08-09T23:55:49.699Z,3.30
2022-08-09T23:58:25.881Z,3.10
